Time;durP1;ratioP1;P1;durP2;ratioP2;P2;SDS_P1;SDS_P2;PMS_P1;PMS_P2;Temp;Humidity;BMP_temperature;BMP_pressure;BME280_temperature;BME280_humidity;BME280_pressure;Samples;Min_cycle;Max_cycle;Signal;HPM_P1;HPM_P2
2021/12/27 00:01:49;;;;;;;2.50;1.73;;;;;;;;;;5030118;28;20108;-68
2021/12/27 00:04:16;;;;;;;0.52;0.52;;;;;;;;;;5023018;28;20030;-69
2021/12/27 00:06:41;;;;;;;5.05;1.65;;;;;;;;;;5027340;28;20033;-69
2021/12/27 00:09:07;;;;;;;6.75;1.30;;;;;;;;;;5027526;28;20444;-69
2021/12/27 00:11:33;;;;;;;1.65;1.20;;;;;;;;;;5025506;28;20033;-69
2021/12/27 00:13:59;;;;;;;1.05;1.05;;;;;;;;;;5029336;28;20396;-69
2021/12/27 00:16:28;;;;;;;6.25;2.05;;;;;;;;;;5024568;28;20116;-69
2021/12/27 00:18:54;;;;;;;1.08;1.08;;;;;;;;;;5028766;28;20032;-69
2021/12/27 00:21:20;;;;;;;0.17;0.17;;;;;;;;;;5025385;28;20026;-69
2021/12/27 00:23:46;;;;;;;0.63;0.63;;;;;;;;;;5030831;28;20120;-69
2021/12/27 00:26:12;;;;;;;0.93;0.93;;;;;;;;;;5028488;28;20040;-69
2021/12/27 00:28:38;;;;;;;0.35;0.35;;;;;;;;;;5029728;28;20397;-69
2021/12/27 00:31:03;;;;;;;1.02;1.00;;;;;;;;;;5028263;28;20033;-69
2021/12/27 00:33:29;;;;;;;1.77;1.20;;;;;;;;;;5035854;28;20072;-69
2021/12/27 00:35:55;;;;;;;0.95;0.95;;;;;;;;;;5027882;28;20029;-69
2021/12/27 00:38:22;;;;;;;2.20;2.05;;;;;;;;;;5025086;28;20029;-69
2021/12/27 00:40:48;;;;;;;1.00;0.95;;;;;;;;;;5025441;28;20044;-69
2021/12/27 00:43:15;;;;;;;0.68;0.68;;;;;;;;;;5028316;28;20033;-69
2021/12/27 00:45:41;;;;;;;2.45;1.30;;;;;;;;;;5026424;28;20029;-69
2021/12/27 00:48:07;;;;;;;2.38;2.03;;;;;;;;;;5028547;28;20124;-69
2021/12/27 00:50:33;;;;;;;3.67;2.25;;;;;;;;;;5024385;28;20051;-69
2021/12/27 00:52:59;;;;;;;1.77;1.65;;;;;;;;;;5027476;28;20117;-69
2021/12/27 00:55:25;;;;;;;0.47;0.47;;;;;;;;;;5028436;28;20030;-70
2021/12/27 00:57:53;;;;;;;2.22;1.38;;;;;;;;;;5044659;28;20032;-69
2021/12/27 01:00:19;;;;;;;1.38;1.27;;;;;;;;;;5027756;28;20102;-69
2021/12/27 01:02:46;;;;;;;6.88;1.85;;;;;;;;;;5027797;28;20041;-69
2021/12/27 01:05:13;;;;;;;7.25;2.55;;;;;;;;;;5027853;28;20037;-68
2021/12/27 01:07:39;;;;;;;0.60;0.60;;;;;;;;;;5028178;28;20171;-69
2021/12/27 01:13:19;;;;;;;1.02;0.93;;;;;;;;;;5027965;28;20396;-69
2021/12/27 01:15:48;;;;;;;3.55;1.98;;;;;;;;;;5027995;28;20484;-69
2021/12/27 01:18:15;;;;;;;1.63;0.98;;;;;;;;;;5023329;28;20029;-69
2021/12/27 01:20:42;;;;;;;1.33;1.23;;;;;;;;;;5023975;28;20121;-69
2021/12/27 01:23:08;;;;;;;1.13;1.05;;;;;;;;;;5027196;28;20049;-69
2021/12/27 01:25:34;;;;;;;3.30;2.65;;;;;;;;;;5027308;28;20052;-69
2021/12/27 01:28:00;;;;;;;1.55;1.45;;;;;;;;;;5030080;28;20033;-69
2021/12/27 01:30:26;;;;;;;0.68;0.68;;;;;;;;;;5037051;28;20025;-69
2021/12/27 01:32:57;;;;;;;5.80;3.38;;;;;;;;;;5032803;28;20090;-69
2021/12/27 01:35:23;;;;;;;0.50;0.50;;;;;;;;;;5035041;28;20041;-69
2021/12/27 01:37:50;;;;;;;9.32;1.25;;;;;;;;;;5031344;28;20080;-69
2021/12/27 01:40:18;;;;;;;0.50;0.50;;;;;;;;;;5040870;28;20036;-69
2021/12/27 01:43:05;;;;;;;0.77;0.77;;;;;;;;;;5031543;28;20029;-70
2021/12/27 01:45:31;;;;;;;0.60;0.60;;;;;;;;;;5030866;28;20034;-69
2021/12/27 01:47:57;;;;;;;0.28;0.28;;;;;;;;;;5036713;28;20036;-69
2021/12/27 01:50:23;;;;;;;1.80;0.60;;;;;;;;;;5035614;28;20037;-69
2021/12/27 01:52:49;;;;;;;0.30;0.30;;;;;;;;;;5030743;28;20037;-69
2021/12/27 01:55:16;;;;;;;1.02;1.02;;;;;;;;;;5030702;28;20029;-69
2021/12/27 01:57:42;;;;;;;0.82;0.82;;;;;;;;;;5034236;28;20503;-69
2021/12/27 02:00:08;;;;;;;1.25;1.05;;;;;;;;;;5033710;28;20033;-69
2021/12/27 02:02:34;;;;;;;2.25;1.00;;;;;;;;;;5035177;28;20106;-69
2021/12/27 02:05:00;;;;;;;2.78;2.58;;;;;;;;;;5030826;28;20469;-69
2021/12/27 02:07:26;;;;;;;2.85;2.20;;;;;;;;;;5030905;28;20025;-69
2021/12/27 02:10:01;;;;;;;13.43;3.78;;;;;;;;;;5030788;28;20452;-69
2021/12/27 02:12:28;;;;;;;1.77;1.48;;;;;;;;;;5030201;28;20064;-69
2021/12/27 02:14:54;;;;;;;2.42;2.20;;;;;;;;;;5030686;28;20041;-69
2021/12/27 02:17:21;;;;;;;2.72;2.53;;;;;;;;;;5030900;28;20045;-69
2021/12/27 02:19:50;;;;;;;7.25;1.85;;;;;;;;;;5039248;28;20036;-69
2021/12/27 02:22:16;;;;;;;17.85;5.13;;;;;;;;;;5039730;28;20447;-69
2021/12/27 02:24:42;;;;;;;4.75;2.00;;;;;;;;;;5032159;28;20032;-69
2021/12/27 02:27:08;;;;;;;3.40;3.08;;;;;;;;;;5036399;28;20158;-69
2021/12/27 02:29:34;;;;;;;2.03;1.90;;;;;;;;;;5029275;28;20431;-69
2021/12/27 02:32:00;;;;;;;6.95;4.05;;;;;;;;;;5029981;28;20387;-69
2021/12/27 02:34:26;;;;;;;1.67;1.55;;;;;;;;;;5030077;28;20021;-69
2021/12/27 02:36:52;;;;;;;1.73;1.63;;;;;;;;;;5030200;28;20087;-69
2021/12/27 02:39:18;;;;;;;8.25;3.38;;;;;;;;;;5029991;28;20476;-69
2021/12/27 02:41:44;;;;;;;1.30;1.20;;;;;;;;;;5038698;28;20028;-69
2021/12/27 02:44:10;;;;;;;0.47;0.47;;;;;;;;;;5044615;28;20033;-69
2021/12/27 02:46:36;;;;;;;1.00;1.00;;;;;;;;;;5029279;28;20048;-69
2021/12/27 02:49:02;;;;;;;4.05;2.38;;;;;;;;;;5031928;28;20629;-69
2021/12/27 02:51:28;;;;;;;6.47;4.38;;;;;;;;;;5041459;28;20038;-69
2021/12/27 02:53:54;;;;;;;3.97;3.60;;;;;;;;;;5037334;28;20480;-69
2021/12/27 02:56:20;;;;;;;1.17;0.88;;;;;;;;;;5029771;28;20044;-69
2021/12/27 02:58:46;;;;;;;2.92;2.65;;;;;;;;;;5030805;28;20099;-69
2021/12/27 03:01:14;;;;;;;4.65;2.72;;;;;;;;;;5029151;28;20038;-69
2021/12/27 03:03:41;;;;;;;1.77;1.67;;;;;;;;;;5029747;28;20037;-69
2021/12/27 03:06:07;;;;;;;0.90;0.88;;;;;;;;;;5029826;28;20025;-69
2021/12/27 03:08:33;;;;;;;2.78;2.58;;;;;;;;;;5031872;28;20025;-69
2021/12/27 03:11:00;;;;;;;2.13;1.52;;;;;;;;;;5029990;28;20033;-69
2021/12/27 03:13:28;;;;;;;1.27;0.95;;;;;;;;;;5029433;28;20116;-69
2021/12/27 03:15:55;;;;;;;1.13;1.08;;;;;;;;;;5029552;28;20037;-70
2021/12/27 03:18:21;;;;;;;0.10;0.10;;;;;;;;;;5025452;28;20109;-70
2021/12/27 03:20:47;;;;;;;1.40;1.05;;;;;;;;;;5029233;28;20033;-69
2021/12/27 03:23:13;;;;;;;2.17;1.98;;;;;;;;;;5029576;28;20160;-69
2021/12/27 03:25:39;;;;;;;4.93;3.20;;;;;;;;;;5036248;28;20116;-69
2021/12/27 03:28:05;;;;;;;1.52;1.40;;;;;;;;;;5029124;28;20423;-70
2021/12/27 03:30:31;;;;;;;0.68;0.68;;;;;;;;;;5029397;28;20098;-70
2021/12/27 03:32:58;;;;;;;4.65;2.80;;;;;;;;;;5045236;28;20056;-69
2021/12/27 03:35:36;;;;;;;9.32;2.20;;;;;;;;;;5039261;28;20029;-69
2021/12/27 03:38:03;;;;;;;8.85;2.92;;;;;;;;;;5028128;28;20038;-69
2021/12/27 03:40:29;;;;;;;3.50;2.50;;;;;;;;;;5029386;28;20036;-69
2021/12/27 03:42:56;;;;;;;1.92;1.80;;;;;;;;;;5043265;28;20105;-69
2021/12/27 03:45:24;;;;;;;0.98;0.98;;;;;;;;;;5047744;28;20627;-70
2021/12/27 03:47:50;;;;;;;4.07;2.13;;;;;;;;;;5030716;28;20025;-69
2021/12/27 03:50:16;;;;;;;9.55;3.30;;;;;;;;;;5028972;28;20068;-69
2021/12/27 03:52:42;;;;;;;3.33;2.45;;;;;;;;;;5032887;28;20431;-69
2021/12/27 03:55:09;;;;;;;0.30;0.30;;;;;;;;;;5029111;28;20041;-70
2021/12/27 03:57:36;;;;;;;1.65;1.35;;;;;;;;;;5038553;28;20550;-69
2021/12/27 04:02:48;;;;;;;2.13;1.65;;;;;;;;;;5028456;28;20059;-69
2021/12/27 04:05:15;;;;;;;1.55;1.40;;;;;;;;;;5026625;28;20018;-68
2021/12/27 04:07:43;;;;;;;5.63;2.28;;;;;;;;;;5027570;28;20040;-69
2021/12/27 04:10:11;;;;;;;1.80;1.70;;;;;;;;;;5039162;28;20051;-70
2021/12/27 04:12:37;;;;;;;1.05;1.02;;;;;;;;;;5028555;28;20469;-70
2021/12/27 04:15:04;;;;;;;2.15;0.93;;;;;;;;;;5033658;28;20033;-69
2021/12/27 04:17:30;;;;;;;3.72;2.42;;;;;;;;;;5027624;28;20041;-69
2021/12/27 04:19:56;;;;;;;3.92;2.80;;;;;;;;;;5025868;28;20029;-69
2021/12/27 04:22:23;;;;;;;0.20;0.20;;;;;;;;;;5028472;28;20049;-70
2021/12/27 04:24:49;;;;;;;0.40;0.40;;;;;;;;;;5028415;28;20677;-69
2021/12/27 04:27:15;;;;;;;1.67;1.52;;;;;;;;;;5033604;28;20041;-69
2021/12/27 04:29:41;;;;;;;0.47;0.47;;;;;;;;;;5028175;28;20044;-69
2021/12/27 04:32:08;;;;;;;32.60;3.80;;;;;;;;;;5028508;28;20453;-69
2021/12/27 04:34:34;;;;;;;1.88;1.15;;;;;;;;;;5028595;28;20033;-69
2021/12/27 04:37:00;;;;;;;0.85;0.85;;;;;;;;;;5028381;28;20030;-69
2021/12/27 04:39:26;;;;;;;0.40;0.40;;;;;;;;;;5030945;28;20086;-69
2021/12/27 04:41:52;;;;;;;6.82;3.33;;;;;;;;;;5032196;28;20061;-69
2021/12/27 04:44:18;;;;;;;1.15;1.15;;;;;;;;;;5030800;28;20396;-69
2021/12/27 04:46:44;;;;;;;1.00;0.93;;;;;;;;;;5029416;28;20030;-69
2021/12/27 04:49:10;;;;;;;4.45;2.13;;;;;;;;;;5039471;28;20102;-69
2021/12/27 04:51:36;;;;;;;0.75;0.75;;;;;;;;;;5035063;28;20109;-69
2021/12/27 04:54:02;;;;;;;5.07;3.08;;;;;;;;;;5030876;28;20033;-69
2021/12/27 04:56:27;;;;;;;2.40;2.00;;;;;;;;;;5028126;28;20389;-69
2021/12/27 04:58:53;;;;;;;0.93;0.93;;;;;;;;;;5031199;28;20115;-69
2021/12/27 05:01:20;;;;;;;11.75;2.55;;;;;;;;;;5030172;28;20372;-69
2021/12/27 05:03:46;;;;;;;9.40;3.70;;;;;;;;;;5031003;28;20496;-69
2021/12/27 05:06:13;;;;;;;0.80;0.80;;;;;;;;;;5051322;28;20029;-69
2021/12/27 05:08:39;;;;;;;1.65;1.58;;;;;;;;;;5031506;28;20476;-69
2021/12/27 05:11:05;;;;;;;2.50;1.88;;;;;;;;;;5023687;28;20070;-69
2021/12/27 05:13:32;;;;;;;1.35;1.25;;;;;;;;;;5030773;28;20057;-69
2021/12/27 05:15:59;;;;;;;0.93;0.93;;;;;;;;;;5031635;28;20042;-69
2021/12/27 05:18:25;;;;;;;1.83;1.73;;;;;;;;;;5033257;28;20056;-70
2021/12/27 05:20:51;;;;;;;2.83;2.33;;;;;;;;;;5031764;28;20091;-69
2021/12/27 05:23:17;;;;;;;4.25;3.63;;;;;;;;;;5030812;28;20038;-70
2021/12/27 05:25:43;;;;;;;3.40;2.33;;;;;;;;;;5041425;28;20454;-70
2021/12/27 05:28:09;;;;;;;11.68;2.67;;;;;;;;;;5042502;28;20033;-69
2021/12/27 05:30:35;;;;;;;4.72;2.80;;;;;;;;;;5032045;28;20030;-70
2021/12/27 05:33:01;;;;;;;6.55;3.90;;;;;;;;;;5031609;28;20550;-69
2021/12/27 05:35:27;;;;;;;0.77;0.75;;;;;;;;;;5031327;28;20037;-69
2021/12/27 05:37:53;;;;;;;2.47;2.33;;;;;;;;;;5031343;28;20033;-69
2021/12/27 05:40:20;;;;;;;6.53;0.88;;;;;;;;;;5030988;28;20029;-69
2021/12/27 05:42:46;;;;;;;0.57;0.38;;;;;;;;;;5034706;28;20061;-69
2021/12/27 05:45:12;;;;;;;1.55;1.40;;;;;;;;;;5035217;28;20043;-69
2021/12/27 05:47:38;;;;;;;5.88;0.88;;;;;;;;;;5045521;28;20063;-69
2021/12/27 05:50:05;;;;;;;6.95;4.00;;;;;;;;;;5031196;28;20041;-69
2021/12/27 05:52:31;;;;;;;0.55;0.55;;;;;;;;;;5030525;28;20034;-69
2021/12/27 05:54:57;;;;;;;1.88;1.55;;;;;;;;;;5023698;28;20038;-69
2021/12/27 05:57:23;;;;;;;2.75;2.55;;;;;;;;;;5030717;28;20388;-69
2021/12/27 05:59:49;;;;;;;2.72;2.50;;;;;;;;;;5031719;28;20215;-69
2021/12/27 06:02:15;;;;;;;0.80;0.80;;;;;;;;;;5030758;28;20038;-69
2021/12/27 06:04:41;;;;;;;2.67;1.30;;;;;;;;;;5039447;28;20025;-69
2021/12/27 06:07:06;;;;;;;3.35;3.10;;;;;;;;;;5031221;28;20029;-69
2021/12/27 06:09:32;;;;;;;2.40;1.52;;;;;;;;;;5031078;28;20029;-69
2021/12/27 06:11:58;;;;;;;5.43;2.70;;;;;;;;;;5030283;28;20026;-69
2021/12/27 06:14:24;;;;;;;3.83;1.52;;;;;;;;;;5041917;28;20483;-69
2021/12/27 06:16:50;;;;;;;3.25;2.60;;;;;;;;;;5032076;28;20030;-69
2021/12/27 06:19:17;;;;;;;1.38;0.90;;;;;;;;;;5030633;28;20025;-69
2021/12/27 06:21:43;;;;;;;3.53;3.08;;;;;;;;;;5027149;28;20037;-69
2021/12/27 06:24:09;;;;;;;1.33;1.27;;;;;;;;;;5029736;28;20040;-69
2021/12/27 06:26:35;;;;;;;3.05;2.83;;;;;;;;;;5030315;28;20075;-69
2021/12/27 06:29:01;;;;;;;3.00;2.60;;;;;;;;;;5030771;28;20581;-69
2021/12/27 06:31:27;;;;;;;3.45;1.52;;;;;;;;;;5030410;28;20032;-69
2021/12/27 06:33:53;;;;;;;2.60;2.40;;;;;;;;;;5029762;28;20463;-69
2021/12/27 06:36:19;;;;;;;0.55;0.55;;;;;;;;;;5027565;28;20048;-69
2021/12/27 06:38:44;;;;;;;1.35;1.08;;;;;;;;;;5032752;28;20448;-69
2021/12/27 06:41:10;;;;;;;2.05;1.60;;;;;;;;;;5043498;28;20060;-69
2021/12/27 06:43:36;;;;;;;3.28;3.08;;;;;;;;;;5029802;28;20033;-69
2021/12/27 06:46:02;;;;;;;1.80;1.65;;;;;;;;;;5029117;28;20334;-69
2021/12/27 06:48:29;;;;;;;3.03;2.28;;;;;;;;;;5031589;28;20379;-70
2021/12/27 06:50:54;;;;;;;3.22;1.60;;;;;;;;;;5030574;28;20373;-69
2021/12/27 06:53:21;;;;;;;1.17;1.10;;;;;;;;;;5029864;28;20044;-69
2021/12/27 06:55:47;;;;;;;1.20;1.15;;;;;;;;;;5031070;28;20044;-69
2021/12/27 06:58:14;;;;;;;1.70;1.60;;;;;;;;;;5029512;28;20033;-70
2021/12/27 07:00:40;;;;;;;0.70;0.70;;;;;;;;;;5038211;28;20060;-70
2021/12/27 07:03:06;;;;;;;1.60;1.50;;;;;;;;;;5029840;28;20476;-69
2021/12/27 07:05:32;;;;;;;4.90;2.90;;;;;;;;;;5029467;28;20310;-69
2021/12/27 07:07:58;;;;;;;2.33;2.17;;;;;;;;;;5028461;28;20036;-70
2021/12/27 07:10:24;;;;;;;3.10;2.80;;;;;;;;;;5040805;28;20472;-69
2021/12/27 07:12:53;;;;;;;2.38;1.98;;;;;;;;;;5028591;28;20535;-69
2021/12/27 07:15:19;;;;;;;25.98;3.13;;;;;;;;;;5038518;28;20036;-69
2021/12/27 07:17:45;;;;;;;1.73;1.63;;;;;;;;;;5029029;28;20388;-70
2021/12/27 07:20:11;;;;;;;3.70;3.40;;;;;;;;;;5030376;28;20087;-69
2021/12/27 07:22:37;;;;;;;4.97;3.10;;;;;;;;;;5026928;28;20041;-70
2021/12/27 07:25:03;;;;;;;6.93;2.30;;;;;;;;;;5033517;28;20036;-69
2021/12/27 07:27:29;;;;;;;1.23;1.08;;;;;;;;;;5030250;28;20029;-69
2021/12/27 07:29:55;;;;;;;1.48;0.88;;;;;;;;;;5024345;28;20029;-69
2021/12/27 07:32:21;;;;;;;1.70;1.60;;;;;;;;;;5028242;28;20029;-70
2021/12/27 07:34:48;;;;;;;0.90;0.90;;;;;;;;;;5029244;28;20041;-70
2021/12/27 07:37:15;;;;;;;4.72;2.17;;;;;;;;;;5029272;28;20035;-69
2021/12/27 07:39:42;;;;;;;1.38;1.27;;;;;;;;;;5031036;28;20109;-69
2021/12/27 07:42:08;;;;;;;1.88;1.77;;;;;;;;;;5029178;28;20044;-69
2021/12/27 07:44:34;;;;;;;3.30;2.72;;;;;;;;;;5028355;28;20731;-70
2021/12/27 07:47:00;;;;;;;14.10;1.95;;;;;;;;;;5029141;28;20112;-70
2021/12/27 07:49:26;;;;;;;8.55;5.10;;;;;;;;;;5029557;28;20037;-69
2021/12/27 07:51:52;;;;;;;1.50;1.40;;;;;;;;;;5028877;28;20037;-69
2021/12/27 07:54:18;;;;;;;3.55;2.80;;;;;;;;;;5028420;28;20034;-69
2021/12/27 07:56:44;;;;;;;2.13;1.98;;;;;;;;;;5032535;28;20476;-70
2021/12/27 07:59:10;;;;;;;5.63;4.28;;;;;;;;;;5035487;28;20036;-69
2021/12/27 08:01:36;;;;;;;1.92;0.93;;;;;;;;;;5039959;28;20033;-69
2021/12/27 08:04:03;;;;;;;5.57;2.78;;;;;;;;;;5031677;28;20037;-69
2021/12/27 08:06:29;;;;;;;2.80;1.85;;;;;;;;;;5028825;28;20174;-69
2021/12/27 08:08:55;;;;;;;1.55;1.45;;;;;;;;;;5028171;28;20026;-69
2021/12/27 08:11:21;;;;;;;4.75;2.47;;;;;;;;;;5028263;28;20077;-69
2021/12/27 08:13:47;;;;;;;1.13;1.13;;;;;;;;;;5028127;28;20400;-69
2021/12/27 08:16:13;;;;;;;2.83;1.65;;;;;;;;;;5028556;28;20041;-69
2021/12/27 08:18:41;;;;;;;5.25;4.13;;;;;;;;;;5032422;28;20029;-69
2021/12/27 08:21:07;;;;;;;5.20;2.60;;;;;;;;;;5037533;28;20175;-69
2021/12/27 08:23:33;;;;;;;4.05;1.48;;;;;;;;;;5027855;28;20698;-69
2021/12/27 08:25:59;;;;;;;1.80;1.60;;;;;;;;;;5028335;28;20102;-69
2021/12/27 08:28:25;;;;;;;9.90;3.03;;;;;;;;;;5031056;28;20483;-69
2021/12/27 08:30:51;;;;;;;0.73;0.73;;;;;;;;;;5027327;28;20033;-70
2021/12/27 08:33:17;;;;;;;0.55;0.55;;;;;;;;;;5027826;28;20030;-70
2021/12/27 08:35:43;;;;;;;3.50;2.30;;;;;;;;;;5028188;28;20029;-69
2021/12/27 08:38:09;;;;;;;8.10;3.47;;;;;;;;;;5030433;28;20060;-73
2021/12/27 08:40:35;;;;;;;1.13;1.10;;;;;;;;;;5030111;28;20029;-70
2021/12/27 08:43:02;;;;;;;1.45;1.35;;;;;;;;;;5034280;28;20021;-69
2021/12/27 08:45:28;;;;;;;6.60;2.40;;;;;;;;;;5032896;28;20025;-70
2021/12/27 08:47:54;;;;;;;2.47;2.20;;;;;;;;;;5035487;28;20030;-70
2021/12/27 08:50:20;;;;;;;0.85;0.85;;;;;;;;;;5025779;28;20040;-69
2021/12/27 08:52:47;;;;;;;0.95;0.90;;;;;;;;;;5031364;28;20036;-70
2021/12/27 08:55:14;;;;;;;1.27;1.15;;;;;;;;;;5039706;28;20099;-69
2021/12/27 08:57:40;;;;;;;2.30;2.03;;;;;;;;;;5042785;28;20103;-70
2021/12/27 09:00:07;;;;;;;2.88;1.98;;;;;;;;;;5032198;28;20669;-70
2021/12/27 09:02:33;;;;;;;6.40;3.72;;;;;;;;;;5031395;28;20033;-72
2021/12/27 09:04:59;;;;;;;1.02;1.02;;;;;;;;;;5031530;28;20028;-72
2021/12/27 09:07:25;;;;;;;2.63;2.40;;;;;;;;;;5031886;28;20032;-70
2021/12/27 09:09:51;;;;;;;1.30;1.20;;;;;;;;;;5033151;28;20680;-75
2021/12/27 09:12:17;;;;;;;2.40;1.38;;;;;;;;;;5032295;28;20052;-73
2021/12/27 09:14:43;;;;;;;7.28;1.05;;;;;;;;;;5030684;28;20029;-72
2021/12/27 09:17:09;;;;;;;2.38;1.80;;;;;;;;;;5031687;28;20034;-71
2021/12/27 09:19:35;;;;;;;3.83;3.15;;;;;;;;;;5031762;28;20086;-70
2021/12/27 09:22:01;;;;;;;1.67;1.60;;;;;;;;;;5031513;28;20080;-71
2021/12/27 09:24:28;;;;;;;2.65;2.25;;;;;;;;;;5021263;28;20042;-71
2021/12/27 09:26:54;;;;;;;2.47;2.25;;;;;;;;;;5023105;28;20092;-71
2021/12/27 09:29:20;;;;;;;0.63;0.63;;;;;;;;;;5021671;28;20116;-74
2021/12/27 09:31:46;;;;;;;2.38;1.67;;;;;;;;;;5024499;28;20112;-70
2021/12/27 09:34:12;;;;;;;0.75;0.75;;;;;;;;;;5021425;28;20037;-71
2021/12/27 09:36:39;;;;;;;0.52;0.52;;;;;;;;;;5023203;28;20025;-73
2021/12/27 09:39:05;;;;;;;2.95;1.70;;;;;;;;;;5017457;28;20468;-72
2021/12/27 09:41:30;;;;;;;0.77;0.77;;;;;;;;;;5021579;28;20048;-72
2021/12/27 09:43:56;;;;;;;3.67;1.95;;;;;;;;;;5021783;28;20034;-73
2021/12/27 09:46:23;;;;;;;4.05;2.50;;;;;;;;;;5020818;28;20030;-72
2021/12/27 09:48:49;;;;;;;1.17;1.17;;;;;;;;;;5025533;28;20029;-72
2021/12/27 09:51:16;;;;;;;1.75;1.60;;;;;;;;;;5018533;28;20025;-71
2021/12/27 09:53:42;;;;;;;14.05;2.42;;;;;;;;;;5019951;28;20104;-72
2021/12/27 09:56:10;;;;;;;3.75;2.38;;;;;;;;;;5018926;28;20519;-71
2021/12/27 09:58:36;;;;;;;1.10;1.05;;;;;;;;;;5018382;28;20025;-72
2021/12/27 10:01:03;;;;;;;2.58;2.38;;;;;;;;;;5024442;28;20037;-72
2021/12/27 10:03:30;;;;;;;1.75;1.65;;;;;;;;;;5038336;28;20033;-71
2021/12/27 10:06:08;;;;;;;0.95;0.93;;;;;;;;;;5019548;28;20033;-71
2021/12/27 10:08:34;;;;;;;2.42;1.85;;;;;;;;;;5020929;28;20033;-75
2021/12/27 10:11:00;;;;;;;6.53;3.65;;;;;;;;;;5025136;28;20358;-71
2021/12/27 10:13:26;;;;;;;5.38;2.75;;;;;;;;;;5019998;28;20053;-71
2021/12/27 10:15:52;;;;;;;10.30;3.55;;;;;;;;;;5020957;28;20029;-71
2021/12/27 10:18:18;;;;;;;3.20;2.83;;;;;;;;;;5018060;28;20336;-71
2021/12/27 10:20:45;;;;;;;2.83;1.95;;;;;;;;;;5023878;28;20182;-71
2021/12/27 10:23:12;;;;;;;2.45;2.25;;;;;;;;;;5025110;28;20049;-71
2021/12/27 10:25:38;;;;;;;1.67;1.58;;;;;;;;;;5019628;28;20467;-71
2021/12/27 10:28:05;;;;;;;6.57;3.45;;;;;;;;;;5019757;28;20080;-71
2021/12/27 10:30:35;;;;;;;4.22;3.10;;;;;;;;;;5018624;28;20026;-71
2021/12/27 10:33:15;;;;;;;4.10;2.87;;;;;;;;;;5023635;28;20191;-71
2021/12/27 10:35:48;;;;;;;3.83;1.70;;;;;;;;;;5016803;28;20422;-70
2021/12/27 10:38:19;;;;;;;2.83;2.58;;;;;;;;;;5013368;28;20045;-69
2021/12/27 10:41:05;;;;;;;2.20;2.00;;;;;;;;;;5023220;28;20619;-66
2021/12/27 10:43:35;;;;;;;0.85;0.85;;;;;;;;;;5012081;28;20435;-67
2021/12/27 10:46:02;;;;;;;4.07;2.60;;;;;;;;;;5016124;28;20037;-67
2021/12/27 10:48:55;;;;;;;2.85;1.75;;;;;;;;;;5010263;28;20064;-67
2021/12/27 10:51:21;;;;;;;1.85;1.75;;;;;;;;;;5014251;28;20026;-67
2021/12/27 10:53:52;;;;;;;7.70;1.20;;;;;;;;;;5017860;28;20381;-67
2021/12/27 10:56:20;;;;;;;2.00;1.80;;;;;;;;;;5014045;28;20401;-67
2021/12/27 10:58:56;;;;;;;1.98;1.88;;;;;;;;;;5016387;28;20045;-67
2021/12/27 11:01:23;;;;;;;3.42;1.45;;;;;;;;;;5010281;28;20440;-68
2021/12/27 11:03:50;;;;;;;6.60;2.60;;;;;;;;;;5015475;28;20079;-68
2021/12/27 11:06:27;;;;;;;3.60;2.40;;;;;;;;;;5013163;28;20626;-67
2021/12/27 11:08:53;;;;;;;1.65;1.55;;;;;;;;;;5016701;28;20025;-69
2021/12/27 11:11:20;;;;;;;2.28;1.98;;;;;;;;;;5020228;28;20033;-68
2021/12/27 11:13:48;;;;;;;8.55;2.85;;;;;;;;;;5028928;28;20384;-69
2021/12/27 11:16:14;;;;;;;7.68;4.80;;;;;;;;;;5027056;28;20030;-69
2021/12/27 11:18:40;;;;;;;2.10;1.92;;;;;;;;;;5028191;28;20044;-68
2021/12/27 11:21:14;;;;;;;2.58;2.38;;;;;;;;;;5026692;28;20033;-68
2021/12/27 11:23:41;;;;;;;2.38;2.20;;;;;;;;;;5033823;28;20049;-69
2021/12/27 11:26:22;;;;;;;1.45;1.38;;;;;;;;;;5028883;28;20124;-69
2021/12/27 11:28:49;;;;;;;2.13;2.03;;;;;;;;;;5028895;28;20025;-70
2021/12/27 11:31:24;;;;;;;2.13;2.03;;;;;;;;;;5030143;28;20430;-70
2021/12/27 11:33:54;;;;;;;2.35;2.20;;;;;;;;;;5028735;28;20037;-70
2021/12/27 11:36:20;;;;;;;2.40;1.83;;;;;;;;;;5029190;28;20029;-69
2021/12/27 11:38:48;;;;;;;1.02;1.00;;;;;;;;;;5029373;28;20025;-69
2021/12/27 11:41:33;;;;;;;4.55;1.95;;;;;;;;;;5029280;28;20041;-70
2021/12/27 11:44:04;;;;;;;5.10;1.70;;;;;;;;;;5026995;28;20033;-69
2021/12/27 11:46:31;;;;;;;1.05;0.98;;;;;;;;;;5025139;28;20037;-71
2021/12/27 11:48:59;;;;;;;1.70;1.48;;;;;;;;;;5028935;28;20033;-70
2021/12/27 11:51:35;;;;;;;1.83;1.48;;;;;;;;;;5027455;28;20108;-70
2021/12/27 11:54:05;;;;;;;1.95;1.85;;;;;;;;;;5027683;28;20045;-70
2021/12/27 11:56:44;;;;;;;1.58;1.48;;;;;;;;;;5029031;28;20038;-70
2021/12/27 11:59:27;;;;;;;1.10;1.00;;;;;;;;;;5027520;28;20059;-68
2021/12/27 12:01:54;;;;;;;2.33;2.15;;;;;;;;;;5029630;28;20091;-70
2021/12/27 12:04:40;;;;;;;4.78;2.92;;;;;;;;;;5027543;28;20165;-70
2021/12/27 12:07:07;;;;;;;16.35;2.80;;;;;;;;;;5021828;28;20036;-70
2021/12/27 12:09:57;;;;;;;1.85;1.38;;;;;;;;;;5015034;28;21526;-71
2021/12/27 12:12:23;;;;;;;1.50;1.27;;;;;;;;;;5013025;28;20033;-69
2021/12/27 12:14:56;;;;;;;3.60;2.28;;;;;;;;;;5031044;28;20029;-67
2021/12/27 12:17:40;;;;;;;0.90;0.90;;;;;;;;;;5026346;28;20056;-67
2021/12/27 12:20:11;;;;;;;7.15;3.92;;;;;;;;;;5026795;28;20033;-67
2021/12/27 12:22:42;;;;;;;2.33;2.03;;;;;;;;;;5026207;28;20133;-66
2021/12/27 12:25:23;;;;;;;2.22;2.05;;;;;;;;;;5028988;28;20307;-72
2021/12/27 12:28:00;;;;;;;1.27;1.27;;;;;;;;;;5026452;28;20120;-68
2021/12/27 12:30:28;;;;;;;4.85;2.45;;;;;;;;;;5026924;28;20048;-68
2021/12/27 12:33:20;;;;;;;1.67;1.50;;;;;;;;;;5029812;28;20040;-69
2021/12/27 12:35:50;;;;;;;4.43;2.10;;;;;;;;;;5016269;28;20042;-68
2021/12/27 12:38:16;;;;;;;2.13;1.95;;;;;;;;;;5021363;28;20068;-69
2021/12/27 12:40:43;;;;;;;3.45;2.33;;;;;;;;;;5021107;28;20060;-68
2021/12/27 12:43:09;;;;;;;2.97;1.23;;;;;;;;;;5027185;28;20213;-69
2021/12/27 12:45:37;;;;;;;2.50;2.33;;;;;;;;;;5028811;28;20376;-68
2021/12/27 12:48:03;;;;;;;4.80;1.27;;;;;;;;;;4998570;28;20451;-68
2021/12/27 12:50:29;;;;;;;1.95;1.42;;;;;;;;;;5026790;28;20025;-69
2021/12/27 12:52:58;;;;;;;2.38;2.17;;;;;;;;;;5026228;28;20027;-68
2021/12/27 12:55:24;;;;;;;1.83;1.73;;;;;;;;;;5029023;28;20029;-68
2021/12/27 12:57:51;;;;;;;2.25;1.75;;;;;;;;;;5023990;28;20451;-69
2021/12/27 13:00:46;;;;;;;0.65;0.65;;;;;;;;;;5024695;28;20033;-68
2021/12/27 13:03:15;;;;;;;0.77;0.77;;;;;;;;;;5008318;28;20049;-68
2021/12/27 13:05:41;;;;;;;0.65;0.65;;;;;;;;;;5026853;28;20030;-68
2021/12/27 13:08:48;;;;;;;2.30;1.42;;;;;;;;;;5020418;28;20638;-68
2021/12/27 13:11:17;;;;;;;14.10;3.70;;;;;;;;;;5020028;28;20574;-68
2021/12/27 13:13:43;;;;;;;3.85;1.73;;;;;;;;;;5023863;28;20053;-69
2021/12/27 13:16:09;;;;;;;8.75;3.72;;;;;;;;;;5021481;28;20056;-69
2021/12/27 13:18:41;;;;;;;8.50;4.22;;;;;;;;;;5017683;28;20041;-68
2021/12/27 13:21:11;;;;;;;2.22;2.03;;;;;;;;;;5014784;28;20029;-68
2021/12/27 13:23:39;;;;;;;2.47;2.33;;;;;;;;;;5017406;28;20037;-69
2021/12/27 13:26:06;;;;;;;0.95;0.95;;;;;;;;;;5021763;28;20515;-69
2021/12/27 13:28:39;;;;;;;1.88;1.42;;;;;;;;;;5019823;28;20033;-69
2021/12/27 13:31:08;;;;;;;4.18;3.88;;;;;;;;;;5021057;28;20022;-70
2021/12/27 13:33:48;;;;;;;1.65;1.55;;;;;;;;;;5017868;28;20030;-69
2021/12/27 13:36:16;;;;;;;10.00;2.78;;;;;;;;;;5020127;28;20573;-68
2021/12/27 13:38:57;;;;;;;0.73;0.73;;;;;;;;;;5021356;28;20030;-69
2021/12/27 13:41:28;;;;;;;2.10;1.98;;;;;;;;;;5014718;28;20408;-69
2021/12/27 13:43:56;;;;;;;1.08;1.02;;;;;;;;;;5017838;28;20041;-69
2021/12/27 13:46:23;;;;;;;3.42;1.73;;;;;;;;;;5017957;28;20103;-69
2021/12/27 13:48:50;;;;;;;5.18;3.35;;;;;;;;;;5021961;28;20151;-69
2021/12/27 13:51:27;;;;;;;1.95;1.65;;;;;;;;;;5017455;28;20033;-70
2021/12/27 13:53:54;;;;;;;3.30;2.67;;;;;;;;;;5018157;28;20029;-68
2021/12/27 13:56:20;;;;;;;2.90;2.38;;;;;;;;;;5020150;28;20369;-69
2021/12/27 13:58:47;;;;;;;2.58;2.35;;;;;;;;;;5019886;28;20072;-68
2021/12/27 14:01:23;;;;;;;6.72;2.15;;;;;;;;;;5025387;28;20057;-69
2021/12/27 14:03:49;;;;;;;1.88;1.38;;;;;;;;;;5021435;28;20033;-68
2021/12/27 14:06:16;;;;;;;4.97;2.10;;;;;;;;;;5018752;28;20056;-73
2021/12/27 14:08:53;;;;;;;1.17;0.75;;;;;;;;;;5020601;28;20034;-73
2021/12/27 14:11:21;;;;;;;1.58;1.48;;;;;;;;;;5021428;28;20041;-72
2021/12/27 14:13:58;;;;;;;2.65;1.10;;;;;;;;;;5025134;28;20029;-72
2021/12/27 14:16:37;;;;;;;5.72;2.78;;;;;;;;;;5019156;28;20022;-73
2021/12/27 14:19:06;;;;;;;12.52;5.38;;;;;;;;;;5021425;28;20064;-69
2021/12/27 14:21:33;;;;;;;1.77;1.67;;;;;;;;;;5019745;28;20514;-69
2021/12/27 14:24:03;;;;;;;2.88;1.80;;;;;;;;;;5015494;28;20034;-71
2021/12/27 14:26:28;;;;;;;4.95;4.00;;;;;;;;;;5013271;28;20135;-69
2021/12/27 14:29:13;;;;;;;7.00;3.80;;;;;;;;;;5015444;28;20527;-70
2021/12/27 14:31:39;;;;;;;2.15;1.95;;;;;;;;;;5018835;28;20519;-69
2021/12/27 14:34:05;;;;;;;2.38;1.38;;;;;;;;;;5027629;28;20029;-70
2021/12/27 14:36:31;;;;;;;1.50;1.40;;;;;;;;;;5020523;28;20065;-71
2021/12/27 14:38:57;;;;;;;0.95;0.95;;;;;;;;;;5016548;28;20063;-70
2021/12/27 14:41:22;;;;;;;1.50;1.40;;;;;;;;;;5021637;28;20031;-69
2021/12/27 14:43:48;;;;;;;1.33;1.23;;;;;;;;;;5025652;28;20025;-70
2021/12/27 14:46:14;;;;;;;5.68;3.60;;;;;;;;;;5019691;28;20061;-70
2021/12/27 14:48:40;;;;;;;6.35;2.35;;;;;;;;;;5017842;28;20183;-69
2021/12/27 14:51:06;;;;;;;1.27;0.85;;;;;;;;;;5018421;28;20681;-69
2021/12/27 14:53:32;;;;;;;2.22;2.00;;;;;;;;;;5021341;28;20033;-74